createdAt,value
2022-08-19T00:01:30.810Z,15.18
2022-08-19T00:04:03.178Z,17.12
2022-08-19T00:06:33.248Z,13.90
2022-08-19T00:09:03.857Z,12.30
2022-08-19T00:11:32.570Z,15.05
2022-08-19T00:14:04.667Z,14.60
2022-08-19T00:16:34.942Z,14.23
2022-08-19T00:19:05.420Z,13.55
2022-08-19T00:21:34.396Z,11.57
2022-08-19T00:24:10.512Z,17.65
2022-08-19T00:26:41.745Z,11.12
2022-08-19T00:29:15.300Z,14.20
2022-08-19T00:31:45.327Z,13.22
2022-08-19T00:34:16.127Z,15.72
2022-08-19T00:36:45.459Z,14.05
2022-08-19T00:39:16.492Z,14.55
2022-08-19T00:41:50.514Z,22.13
2022-08-19T00:44:26.642Z,14.53
2022-08-19T00:46:58.845Z,12.63
2022-08-19T00:49:37.246Z,13.43
2022-08-19T00:52:12.209Z,12.88
2022-08-19T00:54:42.803Z,16.62
2022-08-19T00:57:14.598Z,11.10
2022-08-19T00:59:58.779Z,14.68
2022-08-19T01:02:24.693Z,12.65
2022-08-19T01:04:55.281Z,11.30
2022-08-19T01:07:24.596Z,11.75
2022-08-19T01:12:52.626Z,11.30
2022-08-19T01:15:28.907Z,16.25
2022-08-19T01:17:59.799Z,8.58
2022-08-19T01:20:30.323Z,10.93
2022-08-19T01:23:17.637Z,15.20
2022-08-19T01:25:57.504Z,11.08
2022-08-19T01:28:34.109Z,10.55
2022-08-19T01:31:08.188Z,14.25
2022-08-19T01:33:36.550Z,10.93
2022-08-19T01:36:11.820Z,9.28
2022-08-19T01:38:49.054Z,12.47
2022-08-19T01:41:19.107Z,11.70
2022-08-19T01:44:13.698Z,15.63
2022-08-19T01:46:25.056Z,11.78
2022-08-19T01:48:53.748Z,10.63
2022-08-19T01:51:23.951Z,14.58
2022-08-19T01:53:53.967Z,14.20
2022-08-19T01:56:22.697Z,12.33
2022-08-19T01:59:00.166Z,12.25
2022-08-19T02:01:30.409Z,9.23
2022-08-19T02:04:03.860Z,17.27
2022-08-19T02:06:32.579Z,17.52
2022-08-19T02:09:01.897Z,11.43
2022-08-19T02:11:34.461Z,15.10
2022-08-19T02:14:08.992Z,11.40
2022-08-19T02:16:39.367Z,11.45
2022-08-19T02:19:17.128Z,13.18
2022-08-19T02:21:46.388Z,12.15
2022-08-19T02:24:15.196Z,14.65
2022-08-19T02:26:43.921Z,15.53
2022-08-19T02:29:12.713Z,15.78
2022-08-19T02:31:41.497Z,11.40
2022-08-19T02:34:11.420Z,11.97
2022-08-19T02:36:42.522Z,18.87
2022-08-19T02:39:11.439Z,8.28
2022-08-19T02:41:40.227Z,10.80
2022-08-19T02:44:30.136Z,7.95
2022-08-19T02:46:41.229Z,13.53
2022-08-19T02:49:13.139Z,13.80
2022-08-19T02:51:46.567Z,11.43
2022-08-19T02:54:19.607Z,15.78
2022-08-19T02:56:48.374Z,10.78
2022-08-19T02:59:17.079Z,12.33
2022-08-19T03:01:48.564Z,10.72
2022-08-19T03:04:18.269Z,13.48
2022-08-19T03:06:48.876Z,11.63
2022-08-19T03:09:19.400Z,12.70
2022-08-19T03:11:48.626Z,11.53
2022-08-19T03:14:19.188Z,14.20
2022-08-19T03:16:51.002Z,10.18
2022-08-19T03:19:22.385Z,15.85
2022-08-19T03:21:52.014Z,15.48
2022-08-19T03:24:21.629Z,14.18
2022-08-19T03:26:53.637Z,15.53
2022-08-19T03:29:30.100Z,15.18
2022-08-19T03:31:55.621Z,9.38
2022-08-19T03:34:30.807Z,14.40
2022-08-19T03:37:01.684Z,14.53
2022-08-19T03:39:30.433Z,14.98
2022-08-19T03:42:33.187Z,13.98
2022-08-19T03:44:33.323Z,11.70
2022-08-19T03:47:05.566Z,14.30
2022-08-19T03:49:36.939Z,11.05
2022-08-19T03:52:07.919Z,13.03
2022-08-19T03:54:41.075Z,14.35
2022-08-19T03:57:17.094Z,17.23
2022-08-19T03:59:48.482Z,12.10
2022-08-19T04:02:17.037Z,13.08
2022-08-19T04:04:46.315Z,13.25
2022-08-19T04:07:26.375Z,14.35
2022-08-19T04:09:54.821Z,15.03
2022-08-19T04:12:23.953Z,17.30
2022-08-19T04:14:55.670Z,19.23
2022-08-19T04:17:30.518Z,12.40
2022-08-19T04:19:59.727Z,16.90
2022-08-19T04:22:34.179Z,13.75
2022-08-19T04:25:03.164Z,12.18
2022-08-19T04:27:33.948Z,16.57
2022-08-19T04:30:03.086Z,13.98
2022-08-19T04:32:38.053Z,17.48
2022-08-19T04:35:17.416Z,13.83
2022-08-19T04:37:43.908Z,15.95
2022-08-19T04:40:32.859Z,16.42
2022-08-19T04:43:02.405Z,20.08
2022-08-19T04:45:39.612Z,18.82
2022-08-19T04:48:27.425Z,18.52
2022-08-19T04:50:34.545Z,18.10
2022-08-19T04:53:04.591Z,18.35
2022-08-19T04:55:38.205Z,15.50
2022-08-19T04:58:05.973Z,21.73
2022-08-19T05:00:35.221Z,18.17
2022-08-19T05:03:05.072Z,20.85
2022-08-19T05:05:45.372Z,17.67
2022-08-19T05:08:12.712Z,19.40
2022-08-19T05:10:43.315Z,22.75
2022-08-19T05:13:13.525Z,17.65
2022-08-19T05:15:42.688Z,16.12
2022-08-19T05:18:29.809Z,16.85
2022-08-19T05:21:16.944Z,16.87
2022-08-19T05:23:46.171Z,14.15
2022-08-19T05:26:15.803Z,20.60
2022-08-19T05:28:44.432Z,20.17
2022-08-19T05:31:15.496Z,16.50
2022-08-19T05:33:47.800Z,16.25
2022-08-19T05:36:16.962Z,16.60
2022-08-19T05:39:08.434Z,14.28
2022-08-19T05:41:31.802Z,19.73
2022-08-19T05:44:02.447Z,23.15
2022-08-19T05:46:31.986Z,19.73
2022-08-19T05:49:02.096Z,26.12
2022-08-19T05:51:33.230Z,19.17
2022-08-19T05:54:04.246Z,17.05
2022-08-19T05:56:34.031Z,17.50
2022-08-19T05:59:02.705Z,27.15
2022-08-19T06:01:31.422Z,17.02
2022-08-19T06:04:02.042Z,21.12
2022-08-19T06:06:31.080Z,17.90
2022-08-19T06:09:01.298Z,13.80
2022-08-19T06:11:44.502Z,15.13
2022-08-19T06:14:18.149Z,14.65
2022-08-19T06:16:52.283Z,17.70
2022-08-19T06:19:26.577Z,21.95
2022-08-19T06:21:55.321Z,19.45
2022-08-19T06:24:28.437Z,19.23
2022-08-19T06:27:01.646Z,16.70
2022-08-19T06:29:31.985Z,17.57
2022-08-19T06:32:03.582Z,18.30
2022-08-19T06:34:35.076Z,16.02
2022-08-19T06:37:05.508Z,18.98
2022-08-19T06:39:37.960Z,19.55
2022-08-19T06:45:34.750Z,21.20
2022-08-19T06:48:00.568Z,21.07
2022-08-19T06:50:39.695Z,17.45
2022-08-19T06:55:56.746Z,14.65
2022-08-19T06:58:28.781Z,15.90
2022-08-19T07:01:13.869Z,11.65
2022-08-19T07:03:46.534Z,14.18
2022-08-19T07:06:44.460Z,14.13
2022-08-19T07:12:20.672Z,17.92
2022-08-19T07:27:06.778Z,15.35
2022-08-19T07:29:38.798Z,16.42
2022-08-19T07:32:11.563Z,13.62
2022-08-19T07:34:42.324Z,16.45
2022-08-19T07:37:12.057Z,10.72
2022-08-19T07:39:44.198Z,11.93
2022-08-19T07:42:14.225Z,16.05
2022-08-19T07:44:50.115Z,19.98
2022-08-19T07:47:50.025Z,18.35
2022-08-19T07:49:46.367Z,13.72
2022-08-19T07:52:15.401Z,11.22
2022-08-19T07:54:44.691Z,12.55
2022-08-19T07:57:13.654Z,11.50
2022-08-19T07:59:42.299Z,9.23
2022-08-19T08:02:15.969Z,11.97
2022-08-19T08:08:00.546Z,12.82
2022-08-19T08:10:31.429Z,8.93
2022-08-19T08:13:19.008Z,8.98
2022-08-19T08:15:49.535Z,16.48
2022-08-19T08:18:27.902Z,8.90
2022-08-19T08:23:41.891Z,12.82
2022-08-19T08:26:10.946Z,11.68
2022-08-19T08:28:55.904Z,13.18
2022-08-19T08:31:29.603Z,11.00
2022-08-19T08:34:00.196Z,14.30
2022-08-19T08:36:34.041Z,19.35
2022-08-19T08:39:12.275Z,10.63
2022-08-19T08:41:50.615Z,12.07
2022-08-19T08:44:45.638Z,13.53
2022-08-19T08:47:21.781Z,9.33
2022-08-19T08:50:02.535Z,9.40
2022-08-19T08:52:50.567Z,19.02
2022-08-19T08:55:26.196Z,13.43
2022-08-19T08:58:32.036Z,14.35
2022-08-19T09:01:05.689Z,10.80
2022-08-19T09:03:39.112Z,12.95
2022-08-19T09:06:36.381Z,7.58
2022-08-19T09:09:28.891Z,7.65
2022-08-19T09:12:07.146Z,9.43
2022-08-19T09:14:52.431Z,10.38
2022-08-19T09:17:26.175Z,13.62
2022-08-19T09:20:00.318Z,8.28
2022-08-19T09:22:37.129Z,9.85
2022-08-19T09:25:08.826Z,12.82
2022-08-19T09:27:43.392Z,9.78
2022-08-19T09:30:13.134Z,8.70
2022-08-19T09:32:44.557Z,7.42
2022-08-19T09:35:14.308Z,6.00
2022-08-19T09:37:45.564Z,6.10
2022-08-19T09:40:14.595Z,11.18
2022-08-19T09:42:50.296Z,7.92
2022-08-19T09:45:37.425Z,4.53
2022-08-19T09:47:58.057Z,4.87
2022-08-19T09:50:27.408Z,9.53
2022-08-19T09:52:57.507Z,6.60
2022-08-19T09:55:31.455Z,8.23
2022-08-19T09:57:58.039Z,6.75
2022-08-19T10:00:27.789Z,7.37
2022-08-19T10:03:01.030Z,10.48
2022-08-19T10:05:48.474Z,6.47
2022-08-19T10:08:50.225Z,52.48
2022-08-19T10:10:52.276Z,9.20
2022-08-19T10:16:20.200Z,9.50
2022-08-19T10:18:58.713Z,11.88
2022-08-19T10:21:28.050Z,6.10
2022-08-19T10:24:01.072Z,6.10
2022-08-19T10:26:32.752Z,9.23
2022-08-19T10:29:04.160Z,7.87
2022-08-19T10:32:01.275Z,10.03
2022-08-19T10:34:30.110Z,12.43
2022-08-19T10:37:02.079Z,7.42
2022-08-19T10:39:42.424Z,9.00
2022-08-19T10:42:08.466Z,7.97
2022-08-19T10:44:44.698Z,16.30
2022-08-19T10:47:21.897Z,12.95
2022-08-19T10:50:12.433Z,9.65
2022-08-19T10:53:11.740Z,6.83
2022-08-19T10:58:56.343Z,7.28
2022-08-19T11:02:04.492Z,4.80
2022-08-19T11:04:35.782Z,8.90
2022-08-19T11:07:13.529Z,6.37
2022-08-19T11:12:35.607Z,7.17
2022-08-19T11:15:04.565Z,9.13
2022-08-19T11:17:33.341Z,9.05
2022-08-19T11:20:05.476Z,7.00
2022-08-19T11:22:46.663Z,7.70
2022-08-19T11:28:27.336Z,14.00
2022-08-19T11:30:51.309Z,9.58
2022-08-19T11:33:27.001Z,4.90
2022-08-19T11:35:55.796Z,8.10
2022-08-19T11:38:57.782Z,9.58
2022-08-19T11:42:04.200Z,8.28
2022-08-19T11:44:38.484Z,7.25
2022-08-19T11:47:12.266Z,10.13
2022-08-19T11:49:41.484Z,8.40
2022-08-19T11:52:11.828Z,7.62
2022-08-19T11:54:40.684Z,11.45
2022-08-19T11:57:16.775Z,9.73
2022-08-19T11:59:54.298Z,14.05
2022-08-19T12:02:53.158Z,7.60
2022-08-19T12:05:10.218Z,7.65
2022-08-19T12:07:39.606Z,8.40
2022-08-19T12:10:10.615Z,10.18
2022-08-19T12:12:43.794Z,7.10
2022-08-19T12:15:15.167Z,5.58
2022-08-19T12:17:44.587Z,7.33
2022-08-19T12:20:18.431Z,8.03
2022-08-19T12:22:47.199Z,9.30
2022-08-19T12:25:20.443Z,11.08
2022-08-19T12:27:57.320Z,8.60
2022-08-19T12:30:21.917Z,7.90
2022-08-19T12:32:58.628Z,7.45
2022-08-19T12:35:27.777Z,7.22
2022-08-19T12:37:57.338Z,10.88
2022-08-19T12:40:26.796Z,13.75
2022-08-19T12:42:56.294Z,13.90
2022-08-19T12:45:25.693Z,22.95
2022-08-19T12:47:56.420Z,9.33
2022-08-19T12:50:31.819Z,8.63
2022-08-19T12:53:04.663Z,55.05
2022-08-19T12:55:38.090Z,10.90
2022-08-19T12:58:36.420Z,10.95
2022-08-19T13:01:14.649Z,9.98
2022-08-19T13:03:51.827Z,7.05
2022-08-19T13:06:20.615Z,15.08
2022-08-19T13:08:52.004Z,12.85
2022-08-19T13:11:26.822Z,6.08
2022-08-19T13:13:56.584Z,8.98
2022-08-19T13:16:29.242Z,12.78
2022-08-19T13:19:02.528Z,12.58
2022-08-19T13:24:39.056Z,14.07
2022-08-19T13:27:08.061Z,9.98
2022-08-19T13:30:02.529Z,10.20
2022-08-19T13:32:46.173Z,12.47
2022-08-19T13:35:18.742Z,9.75
2022-08-19T13:37:49.090Z,9.35
2022-08-19T13:40:24.920Z,8.03
2022-08-19T13:42:57.711Z,13.40
2022-08-19T13:45:28.327Z,8.80
2022-08-19T13:47:59.870Z,9.08
2022-08-19T13:50:32.504Z,6.65
2022-08-19T13:53:05.730Z,8.40
2022-08-19T13:55:34.751Z,9.13
2022-08-19T13:58:07.163Z,12.63
2022-08-19T14:03:39.245Z,8.25
2022-08-19T14:06:28.803Z,9.83
2022-08-19T14:08:53.842Z,7.33
2022-08-19T14:11:26.590Z,9.35
2022-08-19T14:13:55.635Z,10.05
2022-08-19T14:19:23.561Z,12.80
2022-08-19T14:21:54.298Z,9.10
2022-08-19T14:24:25.021Z,8.68
2022-08-19T14:26:54.008Z,11.30
2022-08-19T14:29:23.094Z,9.78
2022-08-19T14:31:53.750Z,13.28
2022-08-19T14:34:26.018Z,9.75
2022-08-19T14:36:55.708Z,5.78
2022-08-19T14:39:32.009Z,8.23
2022-08-19T14:42:11.263Z,7.75
2022-08-19T14:44:44.938Z,6.80
2022-08-19T14:47:36.874Z,7.90
2022-08-19T14:53:19.344Z,8.60
2022-08-19T14:55:53.892Z,9.75
2022-08-19T14:58:43.602Z,9.98
2022-08-19T15:01:06.017Z,7.00
2022-08-19T15:03:51.152Z,8.53
2022-08-19T15:06:35.288Z,8.70
2022-08-19T15:09:07.269Z,9.20
2022-08-19T15:11:40.567Z,7.10
2022-08-19T15:14:12.799Z,10.82
2022-08-19T15:16:43.134Z,7.35
2022-08-19T15:19:12.868Z,10.55
2022-08-19T15:21:42.198Z,11.65
2022-08-19T15:24:10.920Z,6.85
2022-08-19T15:26:39.649Z,6.65
2022-08-19T15:29:08.329Z,6.80
2022-08-19T15:31:38.910Z,7.00
2022-08-19T15:34:10.060Z,8.05
2022-08-19T15:36:54.414Z,11.22
2022-08-19T15:39:23.308Z,13.80
2022-08-19T15:41:57.237Z,8.75
2022-08-19T15:44:28.662Z,7.00
2022-08-19T15:46:57.901Z,9.28
2022-08-19T15:49:27.071Z,6.90
2022-08-19T15:52:09.880Z,9.48
2022-08-19T15:58:34.553Z,16.35
2022-08-19T16:01:40.428Z,13.53
2022-08-19T16:10:47.002Z,8.65
2022-08-19T16:19:28.329Z,10.43
2022-08-19T16:22:01.095Z,8.43
2022-08-19T16:24:35.092Z,9.60
2022-08-19T16:27:06.842Z,9.33
2022-08-19T16:29:39.134Z,7.90
2022-08-19T16:32:10.318Z,12.10
2022-08-19T16:34:42.515Z,12.78
2022-08-19T16:37:11.663Z,8.15
2022-08-19T16:39:44.364Z,10.30
2022-08-19T16:45:05.066Z,11.15
2022-08-19T16:47:33.823Z,13.18
2022-08-19T16:50:05.232Z,10.35
2022-08-19T16:52:35.006Z,12.63
2022-08-19T16:55:22.621Z,12.88
2022-08-19T16:57:54.686Z,17.73
2022-08-19T17:00:23.737Z,16.02
2022-08-19T17:02:54.270Z,16.40
2022-08-19T17:05:23.294Z,9.45
2022-08-19T17:07:53.411Z,11.90
2022-08-19T17:10:22.784Z,14.38
2022-08-19T17:12:57.423Z,12.98
2022-08-19T17:15:26.122Z,10.48
2022-08-19T17:18:14.368Z,13.90
2022-08-19T17:20:44.007Z,10.78
2022-08-19T17:23:15.800Z,8.68
2022-08-19T17:25:44.221Z,16.20
2022-08-19T17:28:25.556Z,12.68
2022-08-19T17:31:07.840Z,14.55
2022-08-19T17:33:48.103Z,13.25
2022-08-19T17:36:10.702Z,14.53
2022-08-19T17:38:42.323Z,25.88
2022-08-19T17:41:11.649Z,23.67
2022-08-19T17:43:43.924Z,20.65
2022-08-19T17:46:17.646Z,21.30
2022-08-19T17:48:47.402Z,23.47
2022-08-19T17:51:24.602Z,14.25
2022-08-19T17:53:57.530Z,20.57
2022-08-19T17:56:28.101Z,17.23
2022-08-19T17:59:01.635Z,27.48
2022-08-19T18:01:44.029Z,17.82
2022-08-19T18:04:06.003Z,21.17
2022-08-19T18:06:36.693Z,27.65
2022-08-19T18:09:10.011Z,30.85
2022-08-19T18:11:45.229Z,38.17
2022-08-19T18:14:15.801Z,29.32
2022-08-19T18:16:45.182Z,33.35
2022-08-19T18:19:17.227Z,27.62
2022-08-19T18:21:47.272Z,30.50
2022-08-19T18:24:16.992Z,29.95
2022-08-19T18:26:45.740Z,32.58
2022-08-19T18:29:15.057Z,32.95
2022-08-19T18:31:47.788Z,37.58
2022-08-19T18:34:17.155Z,34.18
2022-08-19T18:36:54.158Z,34.23
2022-08-19T18:39:35.216Z,33.65
2022-08-19T18:42:23.784Z,36.28
2022-08-19T18:45:12.748Z,28.92
2022-08-19T18:48:00.378Z,42.40
2022-08-19T18:50:29.110Z,37.63
2022-08-19T18:53:01.863Z,36.63
2022-08-19T18:55:30.490Z,26.33
2022-08-19T18:57:59.246Z,30.55
2022-08-19T19:00:27.936Z,28.67
2022-08-19T19:02:58.131Z,27.50
2022-08-19T19:05:32.637Z,32.55
2022-08-19T19:08:01.724Z,30.15
2022-08-19T19:10:31.556Z,25.60
2022-08-19T19:13:01.550Z,29.75
2022-08-19T19:15:30.334Z,25.23
2022-08-19T19:17:59.884Z,21.68
2022-08-19T19:20:36.378Z,30.57
2022-08-19T19:23:03.532Z,22.80
2022-08-19T19:25:50.713Z,26.50
2022-08-19T19:28:04.189Z,23.57
2022-08-19T19:30:36.384Z,20.70
2022-08-19T19:33:05.581Z,20.00
2022-08-19T19:35:36.084Z,28.77
2022-08-19T19:38:06.492Z,26.70
2022-08-19T19:40:35.270Z,25.85
2022-08-19T19:43:05.670Z,23.42
2022-08-19T19:45:34.676Z,18.10
2022-08-19T19:48:03.383Z,18.20
2022-08-19T19:50:32.501Z,17.57
2022-08-19T19:53:01.208Z,15.95
2022-08-19T19:55:29.904Z,13.95
2022-08-19T19:57:58.574Z,14.60
2022-08-19T20:00:30.382Z,18.05
2022-08-19T20:02:59.019Z,14.73
2022-08-19T20:05:27.926Z,19.12
2022-08-19T20:08:15.230Z,13.25
2022-08-19T20:10:45.170Z,18.77
2022-08-19T20:13:15.916Z,17.90
2022-08-19T20:15:47.337Z,16.45
2022-08-19T20:18:17.399Z,13.10
2022-08-19T20:20:48.038Z,20.77
2022-08-19T20:23:21.769Z,23.87
2022-08-19T20:25:52.192Z,23.60
2022-08-19T20:28:22.944Z,27.37
2022-08-19T20:30:52.194Z,18.37
2022-08-19T20:33:21.090Z,16.65
2022-08-19T20:35:51.882Z,12.80
2022-08-19T20:38:23.959Z,13.65
2022-08-19T20:40:54.063Z,16.35
2022-08-19T20:43:22.820Z,21.85
2022-08-19T20:45:51.532Z,19.05
2022-08-19T20:51:00.815Z,15.18
2022-08-19T20:53:29.527Z,13.10
2022-08-19T20:55:59.731Z,16.02
2022-08-19T20:58:29.100Z,13.53
2022-08-19T21:01:01.155Z,11.22
2022-08-19T21:03:42.913Z,11.03
2022-08-19T21:06:10.409Z,9.08
2022-08-19T21:08:42.005Z,13.13
2022-08-19T21:13:54.508Z,16.60
2022-08-19T21:16:36.777Z,17.00
2022-08-19T21:19:07.417Z,12.28
2022-08-19T21:21:36.314Z,13.58
2022-08-19T21:24:20.592Z,14.43
2022-08-19T21:26:52.838Z,9.88
2022-08-19T21:29:23.558Z,11.75
2022-08-19T21:31:53.772Z,13.05
2022-08-19T21:34:30.236Z,13.62
2022-08-19T21:37:00.008Z,12.58
2022-08-19T21:39:31.804Z,10.72
2022-08-19T21:42:05.174Z,11.70
2022-08-19T21:44:33.999Z,18.85
2022-08-19T21:49:17.963Z,9.38
2022-08-19T21:49:41.501Z,14.43
2022-08-19T21:52:12.723Z,12.78
2022-08-19T21:54:42.455Z,12.07
2022-08-19T21:57:17.393Z,11.12
2022-08-19T21:59:49.544Z,12.30
2022-08-19T22:02:25.628Z,9.60
2022-08-19T22:04:58.977Z,10.30
2022-08-19T22:07:32.624Z,10.70
2022-08-19T22:10:17.070Z,9.63
2022-08-19T22:13:13.758Z,12.93
2022-08-19T22:15:47.949Z,13.20
2022-08-19T22:18:34.860Z,11.80
2022-08-19T22:21:01.196Z,8.78
2022-08-19T22:23:31.897Z,14.83
2022-08-19T22:26:03.895Z,10.20
2022-08-19T22:28:34.300Z,9.60
2022-08-19T22:31:10.157Z,7.97
2022-08-19T22:33:42.782Z,8.58
2022-08-19T22:36:12.015Z,8.70
2022-08-19T22:38:42.086Z,10.30
2022-08-19T22:41:20.880Z,12.53
2022-08-19T22:43:52.761Z,9.53
2022-08-19T22:46:22.003Z,8.80
2022-08-19T22:49:00.943Z,7.00
2022-08-19T22:51:41.056Z,10.63
2022-08-19T22:54:09.884Z,8.60
2022-08-19T22:56:39.740Z,10.40
2022-08-19T22:59:08.606Z,10.48
2022-08-19T23:01:38.946Z,13.53
2022-08-19T23:04:07.861Z,10.45
2022-08-19T23:06:55.776Z,8.65
2022-08-19T23:09:30.437Z,9.83
2022-08-19T23:12:00.932Z,10.48
2022-08-19T23:14:36.050Z,12.03
2022-08-19T23:17:10.045Z,12.90
2022-08-19T23:19:39.148Z,10.95
2022-08-19T23:22:09.503Z,11.38
2022-08-19T23:24:41.075Z,10.20
2022-08-19T23:27:31.046Z,9.20
2022-08-19T23:30:19.983Z,12.53
2022-08-19T23:32:48.854Z,9.18
2022-08-19T23:35:17.639Z,18.45
2022-08-19T23:37:47.050Z,10.13
2022-08-19T23:40:21.152Z,11.78
2022-08-19T23:42:52.003Z,10.90
2022-08-19T23:45:23.949Z,10.48
2022-08-19T23:47:57.649Z,13.30
2022-08-19T23:50:27.773Z,10.40
2022-08-19T23:52:59.047Z,8.15
2022-08-19T23:55:30.677Z,12.07
2022-08-19T23:58:00.050Z,11.97
